Aviation Digital Data Service (ADDS)

Output produced by METARs form (0428 UTC 26 April 2019)
found at http://www.aviationweather.gov/metar/data/
 
Forecast for: GGOV (BISSAU (CIV/MIL), GW)
Text: TAF GGOV 252300Z 2600/2624 23008KT CAVOK
Forecast period: 0000 UTC 26 April 2019 to 0000 UTC 27 April 2019
Forecast type: FROM: standard forecast or significant change
Winds: from the SW (230 degrees) at 9 MPH (8 knots; 4.1 m/s)
Visibility: 6 or more miles 10+ km)
Ceiling: unknown
Clouds: missing
Weather: NSW  (no significant weather)